createdAt,value
2019-03-13T00:01:48.117Z,88.32
2019-03-13T00:04:18.964Z,88.02
2019-03-13T00:06:49.595Z,87.67
2019-03-13T00:09:20.135Z,86.99
2019-03-13T00:11:50.738Z,86.83
2019-03-13T00:14:21.247Z,86.34
2019-03-13T00:16:51.880Z,85.93
2019-03-13T00:19:22.388Z,86.49
2019-03-13T00:21:53.088Z,86.16
2019-03-13T00:24:23.604Z,86.62
2019-03-13T00:26:54.250Z,87.06
2019-03-13T00:29:24.835Z,87.51
2019-03-13T00:31:55.412Z,87.66
2019-03-13T00:34:28.809Z,88.28
2019-03-13T00:36:59.454Z,87.69
2019-03-13T00:39:30.063Z,88.23
2019-03-13T00:42:00.676Z,87.95
2019-03-13T00:44:32.468Z,86.96
2019-03-13T00:47:03.093Z,87.09
2019-03-13T00:49:33.618Z,87.12
2019-03-13T00:52:04.234Z,87.52
2019-03-13T00:54:34.741Z,88.54
2019-03-13T00:57:05.363Z,89.23
2019-03-13T00:59:35.920Z,89.63
2019-03-13T01:02:25.944Z,90.10
2019-03-13T01:05:09.691Z,90.76
2019-03-13T01:07:40.282Z,91.48
2019-03-13T01:10:14.108Z,91.57
2019-03-13T01:12:47.559Z,92.03
2019-03-13T01:15:21.562Z,92.28
2019-03-13T01:17:52.119Z,91.86
2019-03-13T01:20:22.685Z,91.88
2019-03-13T01:22:53.243Z,91.53
2019-03-13T01:25:24.858Z,91.18
2019-03-13T01:27:55.400Z,91.11
2019-03-13T01:30:27.654Z,90.17
2019-03-13T01:33:03.434Z,89.35
2019-03-13T01:35:43.615Z,89.19
2019-03-13T01:38:14.186Z,89.33
2019-03-13T01:40:44.870Z,88.55
2019-03-13T01:43:15.512Z,88.41
2019-03-13T01:45:46.091Z,87.63
2019-03-13T01:48:16.643Z,87.62
2019-03-13T01:50:47.293Z,87.95
2019-03-13T01:53:17.829Z,87.79
2019-03-13T01:55:48.409Z,88.85
2019-03-13T01:58:18.904Z,90.31
2019-03-13T02:03:52.333Z,91.31
2019-03-13T02:06:25.687Z,92.09
2019-03-13T02:08:56.261Z,93.15
2019-03-13T02:11:26.820Z,93.97
2019-03-13T02:13:58.559Z,94.52
2019-03-13T02:16:29.134Z,95.36
2019-03-13T02:18:59.698Z,96.08
2019-03-13T02:21:30.294Z,95.96
2019-03-13T02:24:01.780Z,96.01
2019-03-13T02:26:32.359Z,96.19
2019-03-13T02:29:02.970Z,95.77
2019-03-13T02:31:35.998Z,94.92
2019-03-13T02:34:06.582Z,94.64
2019-03-13T02:36:37.180Z,94.93
2019-03-13T02:39:07.933Z,94.51
2019-03-13T02:41:38.552Z,92.37
2019-03-13T02:44:09.075Z,91.68
2019-03-13T02:46:39.672Z,92.26
2019-03-13T02:49:10.251Z,93.24
2019-03-13T02:51:42.261Z,93.80
2019-03-13T02:54:12.817Z,93.06
2019-03-13T02:56:44.374Z,92.98
2019-03-13T02:59:14.930Z,92.74
2019-03-13T03:02:22.326Z,93.28
2019-03-13T03:04:52.960Z,94.51
2019-03-13T03:07:23.570Z,94.67
2019-03-13T03:09:54.246Z,94.18
2019-03-13T03:12:24.854Z,93.84
2019-03-13T03:15:08.144Z,94.04
2019-03-13T03:17:38.756Z,93.78
2019-03-13T03:20:13.130Z,94.11
2019-03-13T03:22:43.723Z,94.66
2019-03-13T03:25:14.951Z,95.27
2019-03-13T03:27:48.541Z,94.62
2019-03-13T03:30:22.233Z,94.27
2019-03-13T03:32:54.448Z,93.59
2019-03-13T03:35:25.005Z,93.50
2019-03-13T03:37:55.592Z,93.55
2019-03-13T03:40:26.139Z,93.45
2019-03-13T03:42:56.747Z,94.06
2019-03-13T03:45:27.252Z,94.56
2019-03-13T03:47:57.905Z,94.66
2019-03-13T03:50:28.503Z,94.88
2019-03-13T03:53:02.315Z,95.22
2019-03-13T03:55:32.838Z,94.67
2019-03-13T03:58:03.416Z,94.69
2019-03-13T04:00:33.998Z,93.95
2019-03-13T04:03:04.631Z,93.37
2019-03-13T04:05:35.185Z,93.61
2019-03-13T04:08:05.788Z,93.58
2019-03-13T04:10:36.308Z,93.94
2019-03-13T04:13:06.911Z,93.58
2019-03-13T04:15:38.802Z,92.95
2019-03-13T04:18:09.523Z,93.37
2019-03-13T04:20:40.107Z,93.86
2019-03-13T04:23:10.665Z,93.95
2019-03-13T04:25:41.260Z,94.07
2019-03-13T04:28:14.309Z,94.80
2019-03-13T04:30:44.865Z,94.62
2019-03-13T04:33:15.440Z,94.55
2019-03-13T04:35:46.006Z,94.39
2019-03-13T04:38:16.633Z,94.81
2019-03-13T04:40:47.161Z,94.87
2019-03-13T04:43:17.700Z,94.68
2019-03-13T04:45:48.238Z,94.69
2019-03-13T04:48:18.810Z,94.84
2019-03-13T04:50:49.367Z,94.63
2019-03-13T04:53:19.951Z,95.06
2019-03-13T04:55:52.523Z,94.73
2019-03-13T04:58:22.825Z,94.54
2019-03-13T05:00:53.402Z,94.17
2019-03-13T05:03:23.978Z,93.99
2019-03-13T05:06:02.903Z,93.53
2019-03-13T05:08:45.376Z,93.31
2019-03-13T05:11:15.941Z,93.82
2019-03-13T05:13:46.562Z,93.72
2019-03-13T05:16:17.138Z,93.76
2019-03-13T05:18:47.803Z,93.84
2019-03-13T05:21:18.360Z,93.10
2019-03-13T05:23:50.121Z,92.94
2019-03-13T05:26:20.707Z,92.74
2019-03-13T05:28:51.353Z,92.70
2019-03-13T05:31:21.871Z,92.99
2019-03-13T05:33:52.485Z,93.13
2019-03-13T05:36:22.998Z,93.27
2019-03-13T05:38:53.612Z,93.50
2019-03-13T05:41:24.186Z,93.18
2019-03-13T05:43:54.764Z,92.53
2019-03-13T05:46:25.299Z,92.81
2019-03-13T05:48:55.880Z,92.95
2019-03-13T05:51:26.385Z,93.13
2019-03-13T05:53:57.010Z,93.38
2019-03-13T05:56:27.625Z,93.64
2019-03-13T05:58:58.183Z,93.83
2019-03-13T06:01:28.769Z,93.60
2019-03-13T06:03:59.388Z,93.64
2019-03-13T06:06:30.973Z,93.26
2019-03-13T06:09:01.573Z,93.18
2019-03-13T06:11:32.089Z,93.45
2019-03-13T06:14:05.017Z,93.39
2019-03-13T06:16:35.529Z,93.44
2019-03-13T06:19:06.175Z,93.39
2019-03-13T06:21:36.700Z,93.08
2019-03-13T06:24:10.368Z,92.77
2019-03-13T06:26:43.308Z,92.77
2019-03-13T06:29:13.171Z,92.52
2019-03-13T06:31:43.780Z,92.65
2019-03-13T06:34:14.400Z,92.45
2019-03-13T06:36:44.897Z,92.59
2019-03-13T06:39:15.515Z,92.64
2019-03-13T06:41:46.080Z,92.71
2019-03-13T06:44:16.752Z,92.64
2019-03-13T06:46:47.284Z,92.69
2019-03-13T06:49:17.898Z,93.02
2019-03-13T06:51:48.494Z,92.71
2019-03-13T06:54:19.114Z,93.09
2019-03-13T06:56:49.703Z,93.01
2019-03-13T06:59:34.298Z,92.16
2019-03-13T07:02:29.877Z,92.10
2019-03-13T07:05:25.206Z,92.14
2019-03-13T07:08:02.037Z,91.88
2019-03-13T07:11:09.541Z,92.08
2019-03-13T07:14:08.153Z,92.01
2019-03-13T07:16:47.083Z,92.17
2019-03-13T07:19:35.026Z,92.06
2019-03-13T07:22:11.741Z,92.40
2019-03-13T07:24:59.926Z,92.34
2019-03-13T07:27:55.576Z,92.58
2019-03-13T07:30:52.696Z,92.64
2019-03-13T07:33:46.786Z,93.99
2019-03-13T07:36:34.985Z,94.87
2019-03-13T07:39:22.183Z,94.42
2019-03-13T07:42:11.621Z,94.85
2019-03-13T07:44:53.823Z,94.17
2019-03-13T07:47:52.410Z,94.67
2019-03-13T07:50:59.830Z,93.89
2019-03-13T07:53:47.779Z,94.07
2019-03-13T07:56:31.589Z,93.64
2019-03-13T07:59:13.372Z,93.81
2019-03-13T08:02:02.967Z,93.44
2019-03-13T08:05:04.613Z,92.75
2019-03-13T08:07:53.343Z,92.52
2019-03-13T08:10:39.252Z,92.90
2019-03-13T08:13:41.105Z,91.32
2019-03-13T08:16:31.308Z,91.07
2019-03-13T08:19:34.923Z,91.46
2019-03-13T08:22:26.886Z,91.40
2019-03-13T08:25:26.119Z,91.17
2019-03-13T08:28:24.653Z,90.51
2019-03-13T08:31:15.266Z,89.57
2019-03-13T08:34:07.318Z,89.48
2019-03-13T08:36:54.938Z,88.69
2019-03-13T08:39:35.791Z,88.30
2019-03-13T08:42:19.242Z,88.51
2019-03-13T08:45:05.365Z,88.53
2019-03-13T08:48:05.598Z,89.88
2019-03-13T08:50:43.555Z,90.05
2019-03-13T08:53:25.582Z,90.08
2019-03-13T08:56:18.178Z,90.00
2019-03-13T08:58:58.177Z,90.57
2019-03-13T09:01:40.038Z,91.50
2019-03-13T09:04:31.257Z,91.90
2019-03-13T09:07:12.856Z,91.95
2019-03-13T09:09:55.647Z,92.04
2019-03-13T09:12:51.068Z,92.59
2019-03-13T09:15:46.554Z,93.54
2019-03-13T09:18:26.615Z,93.10
2019-03-13T09:21:16.743Z,94.29
2019-03-13T09:23:56.067Z,93.62
2019-03-13T09:26:35.884Z,93.31
2019-03-13T09:29:37.650Z,92.73
2019-03-13T09:32:25.816Z,93.06
2019-03-13T09:35:24.365Z,93.58
2019-03-13T09:38:26.453Z,92.81
2019-03-13T09:41:18.682Z,93.18
2019-03-13T09:44:14.049Z,93.10
2019-03-13T09:47:01.740Z,92.76
2019-03-13T09:49:51.179Z,93.33
2019-03-13T09:52:40.949Z,93.55
2019-03-13T09:55:27.605Z,92.88
2019-03-13T09:58:07.684Z,92.59
2019-03-13T10:00:57.091Z,91.72
2019-03-13T10:03:45.409Z,91.96
2019-03-13T10:06:33.289Z,91.51
2019-03-13T10:09:17.300Z,91.70
2019-03-13T10:12:06.795Z,91.53
2019-03-13T10:14:48.312Z,91.47
2019-03-13T10:17:28.057Z,92.37
2019-03-13T10:20:09.650Z,90.89
2019-03-13T10:23:04.917Z,90.11
2019-03-13T10:25:51.863Z,89.75
2019-03-13T10:28:47.183Z,89.90
2019-03-13T10:31:39.766Z,90.04
2019-03-13T10:34:30.637Z,89.35
2019-03-13T10:37:10.397Z,89.07
2019-03-13T10:40:00.256Z,87.75
2019-03-13T10:42:46.443Z,87.77
2019-03-13T10:45:36.047Z,88.19
2019-03-13T10:48:14.946Z,88.91
2019-03-13T10:50:57.275Z,87.11
2019-03-13T10:53:54.147Z,87.20
2019-03-13T10:56:49.761Z,87.25
2019-03-13T10:59:51.456Z,87.32
2019-03-13T11:02:43.726Z,86.68
2019-03-13T11:05:29.872Z,86.78
2019-03-13T11:08:19.385Z,86.76
2019-03-13T11:10:57.976Z,86.81
2019-03-13T11:13:51.328Z,86.57
2019-03-13T11:16:33.906Z,87.36
2019-03-13T11:19:20.936Z,87.93
2019-03-13T11:22:04.423Z,88.51
2019-03-13T11:24:39.252Z,88.94
2019-03-13T11:27:27.479Z,89.48
2019-03-13T11:30:28.935Z,89.53
2019-03-13T11:33:20.846Z,88.93
2019-03-13T11:36:08.760Z,88.64
2019-03-13T11:38:52.534Z,89.02
2019-03-13T11:41:42.018Z,89.01
2019-03-13T11:44:31.552Z,89.57
2019-03-13T11:47:16.229Z,90.14
2019-03-13T11:50:05.728Z,90.81
2019-03-13T11:52:57.965Z,91.58
2019-03-13T11:56:02.410Z,91.97
2019-03-13T11:58:52.174Z,91.16
2019-03-13T12:01:44.897Z,91.77
2019-03-13T12:04:16.724Z,91.94
2019-03-13T12:07:08.051Z,91.35
2019-03-13T12:09:50.088Z,92.16
2019-03-13T12:12:38.030Z,91.67
2019-03-13T12:15:32.953Z,92.09
2019-03-13T12:18:29.823Z,90.92
2019-03-13T12:21:18.200Z,90.56
2019-03-13T12:24:06.137Z,90.11
2019-03-13T12:26:47.853Z,90.06
2019-03-13T12:29:40.375Z,91.41
2019-03-13T12:32:28.473Z,90.87
2019-03-13T12:35:17.971Z,89.68
2019-03-13T12:38:13.431Z,90.57
2019-03-13T12:41:04.846Z,91.21
2019-03-13T12:44:00.138Z,90.98
2019-03-13T12:46:38.099Z,90.84
2019-03-13T12:49:16.614Z,91.02
2019-03-13T12:52:01.221Z,91.40
2019-03-13T12:54:50.260Z,91.28
2019-03-13T12:57:33.328Z,92.09
2019-03-13T13:00:17.049Z,92.79
2019-03-13T13:03:12.568Z,92.55
2019-03-13T13:05:58.674Z,93.14
2019-03-13T13:08:57.278Z,93.71
2019-03-13T13:11:40.369Z,93.89
2019-03-13T13:14:29.578Z,94.18
2019-03-13T13:17:22.208Z,93.91
2019-03-13T13:19:55.935Z,94.84
2019-03-13T13:22:26.434Z,94.92
2019-03-13T13:24:56.969Z,95.12
2019-03-13T13:27:27.583Z,95.50
2019-03-13T13:29:58.184Z,95.29
2019-03-13T13:32:28.789Z,94.94
2019-03-13T13:34:59.401Z,95.10
2019-03-13T13:37:30.000Z,95.21
2019-03-13T13:40:00.533Z,95.67
2019-03-13T13:42:31.182Z,96.07
2019-03-13T13:45:01.761Z,96.56
2019-03-13T13:47:32.360Z,96.73
2019-03-13T13:50:02.889Z,96.40
2019-03-13T13:52:33.464Z,96.64
2019-03-13T13:55:04.024Z,96.82
2019-03-13T13:57:34.660Z,96.59
2019-03-13T14:00:11.254Z,96.98
2019-03-13T14:02:41.556Z,96.87
2019-03-13T14:05:12.095Z,97.12
2019-03-13T14:07:42.720Z,96.99
2019-03-13T14:10:13.314Z,97.13
2019-03-13T14:12:44.003Z,97.01
2019-03-13T14:15:14.733Z,96.91
2019-03-13T14:17:45.337Z,97.20
2019-03-13T14:20:16.141Z,96.70
2019-03-13T14:22:46.722Z,96.61
2019-03-13T14:25:18.912Z,96.48
2019-03-13T14:27:49.503Z,96.39
2019-03-13T14:30:20.354Z,95.72
2019-03-13T14:32:50.948Z,95.17
2019-03-13T14:35:23.010Z,95.36
2019-03-13T14:37:53.606Z,95.35
2019-03-13T14:40:24.104Z,96.15
2019-03-13T14:42:54.708Z,96.40
2019-03-13T14:45:25.243Z,95.96
2019-03-13T14:47:55.820Z,96.58
2019-03-13T14:50:27.899Z,96.50
2019-03-13T14:52:58.499Z,96.74
2019-03-13T14:55:29.074Z,96.81
2019-03-13T14:57:59.657Z,97.18
2019-03-13T15:00:33.475Z,96.41
2019-03-13T15:03:06.419Z,96.33
2019-03-13T15:05:37.069Z,96.45
2019-03-13T15:08:07.609Z,96.42
2019-03-13T15:10:38.248Z,96.78
2019-03-13T15:13:08.962Z,96.36
2019-03-13T15:15:39.608Z,97.27
2019-03-13T15:18:10.279Z,98.21
2019-03-13T15:20:40.964Z,97.97
2019-03-13T15:23:11.546Z,98.17
2019-03-13T15:25:42.166Z,98.08
2019-03-13T15:28:12.793Z,99.30
2019-03-13T15:30:43.413Z,99.83
2019-03-13T15:33:15.511Z,100.00
2019-03-13T15:35:48.260Z,100.00
2019-03-13T15:38:18.839Z,100.00
2019-03-13T15:40:49.437Z,99.73
2019-03-13T15:43:20.026Z,99.36
2019-03-13T15:45:53.372Z,99.44
2019-03-13T15:48:24.022Z,99.27
2019-03-13T15:50:54.563Z,98.82
2019-03-13T15:53:28.251Z,98.99
2019-03-13T15:56:00.706Z,99.19
2019-03-13T15:58:31.345Z,99.03
2019-03-13T16:01:01.939Z,98.09
2019-03-13T16:03:32.526Z,97.33
2019-03-13T16:06:04.096Z,97.04
2019-03-13T16:08:34.795Z,97.19
2019-03-13T16:11:07.061Z,97.11
2019-03-13T16:13:38.641Z,96.68
2019-03-13T16:16:10.667Z,97.30
2019-03-13T16:18:41.288Z,97.49
2019-03-13T16:21:14.186Z,97.47
2019-03-13T16:23:44.756Z,97.06
2019-03-13T16:26:18.315Z,96.71
2019-03-13T16:28:48.888Z,96.86
2019-03-13T16:31:19.448Z,97.15
2019-03-13T16:33:55.455Z,96.80
2019-03-13T16:36:26.034Z,96.49
2019-03-13T16:38:56.691Z,95.72
2019-03-13T16:41:27.305Z,95.43
2019-03-13T16:43:57.922Z,95.31
2019-03-13T16:46:28.511Z,95.05
2019-03-13T16:48:59.115Z,95.10
2019-03-13T16:51:29.668Z,94.56
2019-03-13T16:54:00.416Z,94.13
2019-03-13T16:56:30.994Z,94.22
2019-03-13T16:59:01.612Z,93.56
2019-03-13T17:01:32.201Z,93.36
2019-03-13T17:04:03.914Z,92.94
2019-03-13T17:06:34.492Z,92.74
2019-03-13T17:09:06.991Z,92.49
2019-03-13T17:11:37.573Z,93.15
2019-03-13T17:14:08.245Z,92.99
2019-03-13T17:16:40.108Z,93.09
2019-03-13T17:19:10.773Z,93.20
2019-03-13T17:21:44.327Z,93.91
2019-03-13T17:24:16.200Z,94.11
2019-03-13T17:26:46.777Z,94.44
2019-03-13T17:29:17.445Z,94.49
2019-03-13T17:31:48.824Z,94.36
2019-03-13T17:34:19.427Z,94.19
2019-03-13T17:36:53.065Z,93.74
2019-03-13T17:39:23.730Z,93.79
2019-03-13T17:41:54.338Z,93.62
2019-03-13T17:44:25.015Z,93.52
2019-03-13T17:46:55.622Z,93.80
2019-03-13T17:49:26.290Z,94.77
2019-03-13T17:51:58.273Z,95.69
2019-03-13T17:54:29.517Z,95.85
2019-03-13T17:57:00.181Z,96.58
2019-03-13T17:59:30.806Z,96.88
2019-03-13T18:02:01.405Z,97.77
2019-03-13T18:04:32.093Z,97.29
2019-03-13T18:07:02.756Z,97.83
2019-03-13T18:09:33.415Z,98.37
2019-03-13T18:12:03.942Z,98.52
2019-03-13T18:14:34.600Z,98.60
2019-03-13T18:17:12.461Z,99.04
2019-03-13T18:19:38.750Z,99.94
2019-03-13T18:22:09.345Z,100.00
2019-03-13T18:24:48.143Z,100.00
2019-03-13T18:27:18.924Z,100.00
2019-03-13T18:29:49.575Z,100.00
2019-03-13T18:32:41.658Z,100.00
2019-03-13T18:35:05.000Z,100.00
2019-03-13T18:37:36.178Z,100.00
2019-03-13T18:40:07.615Z,100.00
2019-03-13T18:42:38.172Z,100.00
2019-03-13T18:45:17.742Z,100.00
2019-03-13T18:47:54.433Z,100.00
2019-03-13T18:50:25.051Z,100.00
2019-03-13T18:52:55.754Z,100.00
2019-03-13T18:55:26.477Z,100.00
2019-03-13T18:57:57.105Z,100.00
2019-03-13T19:00:29.860Z,100.00
2019-03-13T19:03:00.605Z,100.00
2019-03-13T19:05:31.311Z,100.00
2019-03-13T19:08:01.909Z,100.00
2019-03-13T19:10:32.586Z,100.00
2019-03-13T19:13:03.291Z,100.00
2019-03-13T19:15:34.085Z,100.00
2019-03-13T19:18:04.766Z,100.00
2019-03-13T19:20:35.438Z,100.00
2019-03-13T19:23:06.025Z,100.00
2019-03-13T19:25:38.771Z,100.00
2019-03-13T19:28:09.332Z,100.00
2019-03-13T19:30:39.994Z,100.00
2019-03-13T19:33:10.611Z,100.00
2019-03-13T19:35:41.263Z,100.00
2019-03-13T19:38:11.819Z,100.00
2019-03-13T19:40:42.484Z,100.00
2019-03-13T19:43:13.084Z,100.00
2019-03-13T19:45:43.786Z,100.00
2019-03-13T19:48:14.376Z,100.00
2019-03-13T19:50:45.200Z,99.58
2019-03-13T19:53:17.660Z,99.42
2019-03-13T19:55:48.424Z,98.79
2019-03-13T19:58:20.753Z,99.57
2019-03-13T20:00:51.426Z,99.65
2019-03-13T20:03:22.112Z,99.31
2019-03-13T20:05:52.660Z,99.25
2019-03-13T20:08:23.245Z,100.00
2019-03-13T20:10:53.869Z,100.00
2019-03-13T20:13:24.457Z,99.30
2019-03-13T20:15:55.150Z,99.00
2019-03-13T20:18:25.787Z,99.89
2019-03-13T20:20:57.295Z,100.00
2019-03-13T20:23:28.000Z,99.50
2019-03-13T20:25:58.663Z,99.25
2019-03-13T20:28:29.241Z,99.66
2019-03-13T20:31:01.971Z,100.00
2019-03-13T20:33:32.585Z,100.00
2019-03-13T20:36:06.288Z,100.00
2019-03-13T20:38:36.942Z,100.00
2019-03-13T20:41:11.659Z,100.00
2019-03-13T20:43:42.266Z,100.00
2019-03-13T20:46:12.968Z,99.94
2019-03-13T20:48:43.544Z,100.00
2019-03-13T20:51:14.159Z,100.00
2019-03-13T20:53:44.783Z,100.00
2019-03-13T20:56:15.462Z,100.00
2019-03-13T20:58:46.079Z,99.36
2019-03-13T21:01:16.835Z,99.27
2019-03-13T21:03:47.463Z,99.10
2019-03-13T21:06:20.224Z,99.06
2019-03-13T21:08:54.133Z,99.42
2019-03-13T21:11:23.513Z,99.88
2019-03-13T21:13:54.100Z,100.00
2019-03-13T21:16:24.832Z,100.00
2019-03-13T21:18:55.439Z,100.00
2019-03-13T21:21:26.072Z,100.00
2019-03-13T21:23:56.658Z,100.00
2019-03-13T21:26:27.439Z,100.00
2019-03-13T21:28:58.039Z,100.00
2019-03-13T21:31:28.699Z,100.00
2019-03-13T21:33:59.266Z,100.00
2019-03-13T21:36:29.869Z,100.00
2019-03-13T21:39:00.467Z,100.00
2019-03-13T21:41:31.159Z,100.00
2019-03-13T21:44:03.172Z,100.00
2019-03-13T21:46:34.929Z,100.00
2019-03-13T21:49:07.989Z,100.00
2019-03-13T21:51:37.888Z,100.00
2019-03-13T21:54:08.538Z,100.00
2019-03-13T21:56:39.177Z,100.00
2019-03-13T21:59:09.819Z,100.00
2019-03-13T22:01:40.664Z,100.00
2019-03-13T22:04:23.560Z,100.00
2019-03-13T22:06:44.569Z,100.00
2019-03-13T22:09:15.118Z,100.00
2019-03-13T22:11:45.765Z,100.00
2019-03-13T22:14:16.314Z,100.00
2019-03-13T22:16:49.040Z,100.00
2019-03-13T22:19:19.874Z,100.00
2019-03-13T22:21:50.480Z,100.00
2019-03-13T22:24:23.756Z,100.00
2019-03-13T22:26:54.365Z,100.00
2019-03-13T22:29:25.024Z,100.00
2019-03-13T22:31:55.667Z,100.00
2019-03-13T22:34:28.697Z,100.00
2019-03-13T22:36:59.505Z,100.00
2019-03-13T22:39:30.008Z,100.00
2019-03-13T22:42:00.637Z,100.00
2019-03-13T22:44:31.171Z,100.00
2019-03-13T22:47:01.756Z,100.00
2019-03-13T22:49:32.350Z,100.00
2019-03-13T22:52:03.018Z,100.00
2019-03-13T22:54:33.593Z,100.00
2019-03-13T22:57:04.234Z,100.00
2019-03-13T22:59:34.797Z,100.00
2019-03-13T23:02:07.720Z,100.00
2019-03-13T23:04:38.264Z,100.00
2019-03-13T23:07:08.905Z,100.00
2019-03-13T23:09:39.467Z,100.00
2019-03-13T23:12:10.090Z,100.00
2019-03-13T23:14:40.605Z,100.00
2019-03-13T23:17:14.215Z,100.00
2019-03-13T23:19:46.460Z,100.00
2019-03-13T23:22:17.061Z,100.00
2019-03-13T23:24:47.613Z,100.00
2019-03-13T23:27:18.245Z,100.00
2019-03-13T23:29:50.286Z,100.00
2019-03-13T23:32:20.912Z,100.00
2019-03-13T23:34:51.484Z,100.00
2019-03-13T23:37:22.057Z,100.00
2019-03-13T23:39:52.580Z,100.00
2019-03-13T23:42:23.229Z,100.00
2019-03-13T23:44:54.952Z,100.00
2019-03-13T23:47:25.768Z,100.00
2019-03-13T23:49:56.309Z,100.00
2019-03-13T23:52:26.924Z,100.00
2019-03-13T23:54:57.511Z,100.00
2019-03-13T23:57:28.979Z,100.00
